Terminal Aerodrome Forecast
Issued by NWS

Home | Current Version | Previous Version | Text Only | Print | Product List | Glossary On
Versions: 1 2 3 4 5 6 7 8 9 10 11 12 13 14 15 16 17 18 19 20 21 22 23 24 25 26 27 28 29 30 31 32 33
000
FTUS45 KBYZ 180534 AAA
TAFLVM
TAF AMD
KLVM 180534Z 1806/1906 23005KT P6SM VCTS SCT120CB
     FM180700 23005KT P6SM SCT120
     FM181400 24007KT P6SM VCTS SCT070CB BKN100
     FM182100 25012G24KT P6SM VCTS BKN070CB OVC100
     FM190200 23014KT P6SM VCTS SCT070CB BKN100=

USA.gov is the U.S. government's official web portal to all federal, state and local government web resources and services.